Windsor Mills, Ohio
Current Conditions -  °F | °C
As of 12:53 AM on Tuesday 27 Jan 2015 (Local Time) from KHZY Reporting Station
Light Snow Light Snow  
Wind Chill: 10°   Ceiling: 1000
Heat Index: 20°   Visibility: 5mi
Dew Point: 15°   Wind: 8mph
Humidity: 81%   Direction: 10°N
Pressure: 29.88"   Gusts: NA
Location:  41.5537°N, 80.9667°W
Report Text: KHZY 270553Z AUTO 01007KT 5SM -SN OVC010 M07/M09 A2988 RMK AO2 SLP131 P0000 60000 T10671094 11061 21067 58003
Loading
Personal Weather Stations






























Interactive Weather Map New forecast layout! Learn more

10-Day Weather Forecast

Advertisements
Track Severe Weather on mobile